Time;durP1;ratioP1;P1;durP2;ratioP2;P2;SDS_P1;SDS_P2;PMS_P1;PMS_P2;Temp;Humidity;BMP_temperature;BMP_pressure;BME280_temperature;BME280_humidity;BME280_pressure;Samples;Min_cycle;Max_cycle;Signal;HPM_P1;HPM_P2
2022/03/23 00:01:52;;;;;;;37.28;18.02;;;;;;;2.43;78.55;103078.09;5049447;28;20119;-77
2022/03/23 00:04:17;;;;;;;35.45;19.50;;;;;;;2.41;78.91;103074.72;5032704;28;20123;-76
2022/03/23 00:06:44;;;;;;;33.08;18.98;;;;;;;2.39;79.05;103076.47;5064406;28;20071;-75
2022/03/23 00:09:10;;;;;;;34.17;20.13;;;;;;;2.41;79.73;103074.72;5029771;28;20029;-76
2022/03/23 00:11:35;;;;;;;33.88;20.35;;;;;;;2.42;80.66;103079.00;5048008;28;20393;-75
2022/03/23 00:14:02;;;;;;;32.88;20.40;;;;;;;2.39;81.74;103073.88;5044186;28;20036;-76
2022/03/23 00:16:28;;;;;;;33.47;19.60;;;;;;;2.38;80.14;103070.47;5062720;28;20037;-76
2022/03/23 00:18:53;;;;;;;36.60;19.52;;;;;;;2.36;80.73;103071.41;5042998;28;20040;-77
2022/03/23 00:21:20;;;;;;;36.10;20.35;;;;;;;2.38;81.55;103074.81;5041996;28;20048;-76
2022/03/23 00:23:46;;;;;;;32.67;19.80;;;;;;;2.30;81.95;103070.66;5027418;28;20155;-74
2022/03/23 00:26:12;;;;;;;35.22;21.05;;;;;;;2.25;82.34;103062.13;5045367;28;20132;-76
2022/03/23 00:28:38;;;;;;;32.42;19.50;;;;;;;2.19;83.30;103059.69;5047240;28;20073;-75
2022/03/23 00:31:04;;;;;;;33.42;19.55;;;;;;;2.21;83.73;103070.84;5056709;28;20465;-76
2022/03/23 00:33:30;;;;;;;36.13;20.10;;;;;;;2.24;84.36;103064.75;5049391;28;20472;-76
2022/03/23 00:35:56;;;;;;;37.00;19.70;;;;;;;2.22;84.29;103066.53;5050734;28;20070;-74
2022/03/23 00:38:22;;;;;;;30.92;19.98;;;;;;;2.19;84.68;103069.19;5049167;28;20078;-76
2022/03/23 00:40:48;;;;;;;34.00;19.63;;;;;;;2.14;85.05;103058.94;5051386;28;20072;-75
2022/03/23 00:43:14;;;;;;;36.30;20.23;;;;;;;2.08;83.96;103065.09;5038705;28;20445;-76
2022/03/23 00:45:40;;;;;;;30.40;20.38;;;;;;;2.02;85.58;103057.47;5046039;28;20032;-77
2022/03/23 00:48:06;;;;;;;40.58;21.48;;;;;;;1.93;85.32;103060.25;5051308;28;20044;-76
2022/03/23 00:50:34;;;;;;;32.55;20.98;;;;;;;1.87;86.68;103057.81;5061949;28;20668;-76
2022/03/23 00:53:00;;;;;;;36.25;20.90;;;;;;;1.84;87.14;103063.03;5035361;28;20036;-76
2022/03/23 00:55:26;;;;;;;35.67;21.55;;;;;;;1.79;87.39;103055.41;5044323;28;20067;-77
2022/03/23 00:57:52;;;;;;;32.70;21.35;;;;;;;1.80;87.86;103064.84;5032422;28;20454;-75
2022/03/23 01:00:22;;;;;;;36.70;21.80;;;;;;;1.82;87.98;103062.22;5031141;28;20523;-77
2022/03/23 01:02:48;;;;;;;37.10;22.10;;;;;;;1.83;87.52;103061.34;5046649;28;20040;-76
2022/03/23 01:05:16;;;;;;;42.03;23.00;;;;;;;1.81;87.62;103057.94;5046824;28;20124;-74
2022/03/23 01:07:43;;;;;;;36.58;22.55;;;;;;;1.84;88.26;103061.31;5058631;28;20036;-75
2022/03/23 01:10:14;;;;;;;36.67;21.98;;;;;;;1.85;87.95;103060.44;5050441;28;20123;-75
2022/03/23 01:12:45;;;;;;;40.50;22.33;;;;;;;1.85;87.70;103062.19;5030929;28;20561;-76
2022/03/23 01:15:15;;;;;;;40.22;22.20;;;;;;;1.86;87.72;103058.69;5042742;28;20130;-76
2022/03/23 01:17:43;;;;;;;44.97;23.95;;;;;;;1.82;87.97;103051.88;5038481;28;20047;-76
2022/03/23 01:20:11;;;;;;;43.13;24.05;;;;;;;1.83;87.43;103062.22;5038930;28;20063;-77
2022/03/23 01:22:38;;;;;;;37.75;21.92;;;;;;;1.78;86.79;103050.25;5068722;28;20066;-75
2022/03/23 01:25:05;;;;;;;41.70;22.95;;;;;;;1.77;87.67;103057.13;5070628;28;20040;-77
2022/03/23 01:27:31;;;;;;;38.40;23.80;;;;;;;1.73;87.49;103047.75;5056002;28;20521;-76
2022/03/23 01:29:59;;;;;;;40.97;22.50;;;;;;;1.70;87.31;103055.59;5030566;28;20041;-76
2022/03/23 01:32:25;;;;;;;34.28;21.65;;;;;;;1.71;86.15;103046.94;5046154;28;20475;-76
2022/03/23 01:34:51;;;;;;;36.08;21.83;;;;;;;1.69;84.95;103046.94;5030590;28;20040;-77
2022/03/23 01:37:17;;;;;;;33.92;21.55;;;;;;;1.70;84.96;103060.75;5032454;28;20145;-77
2022/03/23 01:39:43;;;;;;;39.03;22.52;;;;;;;1.66;87.11;103056.53;5052444;28;20020;-76
2022/03/23 01:42:09;;;;;;;36.50;23.52;;;;;;;1.57;87.73;103054.16;5052598;28;20188;-76
2022/03/23 01:44:35;;;;;;;34.88;22.02;;;;;;;1.54;87.28;103055.03;5028211;28;20032;-76
2022/03/23 01:47:02;;;;;;;38.88;22.20;;;;;;;1.51;86.05;103052.53;5051732;28;20036;-76
2022/03/23 01:49:33;;;;;;;34.85;21.00;;;;;;;1.51;84.89;103050.78;5048175;28;20124;-77
2022/03/23 01:51:59;;;;;;;41.40;22.65;;;;;;;1.48;85.61;103050.84;5043953;28;20478;-77
2022/03/23 01:54:25;;;;;;;35.03;21.55;;;;;;;1.44;87.15;103045.78;5031395;28;20459;-76
2022/03/23 01:56:51;;;;;;;35.92;22.58;;;;;;;1.45;88.32;103045.75;5043135;28;20594;-75
2022/03/23 01:59:18;;;;;;;39.80;23.20;;;;;;;1.41;88.83;103040.66;5045189;28;20035;-76
2022/03/23 02:01:44;;;;;;;39.60;22.23;;;;;;;1.39;88.94;103047.59;5052231;28;20033;-76
2022/03/23 02:04:10;;;;;;;39.35;21.98;;;;;;;1.34;89.35;103042.53;5053055;28;20059;-76
2022/03/23 02:06:37;;;;;;;35.85;21.95;;;;;;;1.32;89.31;103041.72;5036211;28;20061;-76
2022/03/23 02:09:05;;;;;;;35.38;21.90;;;;;;;1.32;89.47;103037.38;5037491;28;20036;-77
2022/03/23 02:11:35;;;;;;;32.55;21.48;;;;;;;1.32;89.41;103036.53;5042074;28;20037;-76
2022/03/23 02:14:01;;;;;;;37.65;23.35;;;;;;;1.29;89.43;103034.84;5049786;28;20044;-77
2022/03/23 02:16:27;;;;;;;36.55;22.65;;;;;;;1.29;89.05;103039.16;5049060;28;20118;-76
2022/03/23 02:18:53;;;;;;;37.03;22.75;;;;;;;1.21;89.21;103035.91;5059677;28;20102;-76
2022/03/23 02:21:19;;;;;;;37.92;22.13;;;;;;;1.15;90.14;103036.88;5041657;28;20040;-76
2022/03/23 02:23:44;;;;;;;35.28;22.33;;;;;;;1.09;90.25;103034.38;5029335;28;20040;-76
2022/03/23 02:26:11;;;;;;;37.70;23.40;;;;;;;1.09;90.14;103032.66;5028501;28;20029;-76
2022/03/23 02:28:36;;;;;;;35.25;22.45;;;;;;;1.08;90.76;103032.69;5027211;28;20128;-76
2022/03/23 02:31:04;;;;;;;36.83;23.73;;;;;;;1.06;90.93;103030.13;5067284;28;20115;-76
2022/03/23 02:33:29;;;;;;;37.72;23.48;;;;;;;0.98;91.41;103026.84;5046228;28;20060;-76
2022/03/23 02:35:55;;;;;;;34.33;23.35;;;;;;;0.96;90.79;103032.03;5050773;28;20082;-77
2022/03/23 02:38:21;;;;;;;34.95;21.58;;;;;;;0.94;90.86;103036.38;5059417;28;20187;-77
2022/03/23 02:40:47;;;;;;;39.63;22.98;;;;;;;0.98;91.43;103034.59;5029149;28;20033;-76
2022/03/23 02:43:14;;;;;;;41.33;24.45;;;;;;;1.06;95.77;103024.09;5042502;28;20741;-76
2022/03/23 02:45:40;;;;;;;38.67;24.65;;;;;;;1.15;100.00;103029.09;5070793;28;20040;-74
2022/03/23 02:48:06;;;;;;;38.58;24.65;;;;;;;1.20;100.00;103022.09;5071118;28;20032;-77
2022/03/23 02:50:33;;;;;;;38.60;23.67;;;;;;;1.16;100.00;103031.63;5054396;28;20032;-76
2022/03/23 03:04:14;;;;;;;39.20;24.52;;;;;;;0.76;100.00;103026.38;5049306;28;20033;-75
2022/03/23 03:06:39;;;;;;;39.80;25.33;;;;;;;0.65;100.00;103031.72;5034268;28;20071;-76
2022/03/23 03:09:05;;;;;;;41.50;24.45;;;;;;;0.53;100.00;103030.19;5031864;28;20033;-76
2022/03/23 03:11:31;;;;;;;38.63;25.90;;;;;;;0.45;100.00;103037.19;5062556;28;20044;-76
2022/03/23 03:13:57;;;;;;;39.97;25.60;;;;;;;0.31;100.00;103031.41;5043641;28;20493;-76
2022/03/23 03:16:22;;;;;;;45.20;29.15;;;;;;;0.22;100.00;103032.41;5062601;28;20128;-77
2022/03/23 03:18:48;;;;;;;45.30;27.33;;;;;;;0.21;100.00;103035.88;5029880;28;20610;-76
2022/03/23 03:21:14;;;;;;;42.13;26.65;;;;;;;0.28;100.00;103037.47;5028531;28;20052;-76
2022/03/23 03:23:42;;;;;;;42.70;26.30;;;;;;;0.28;100.00;103029.72;5028737;28;20109;-76
2022/03/23 03:26:09;;;;;;;45.38;27.25;;;;;;;0.25;100.00;103040.09;5052434;28;20397;-75
2022/03/23 03:28:36;;;;;;;38.92;26.38;;;;;;;0.26;100.00;103036.63;5036079;28;20075;-76
2022/03/23 03:31:04;;;;;;;41.10;25.52;;;;;;;0.18;100.00;103033.31;5020713;28;20119;-76
2022/03/23 03:33:30;;;;;;;47.17;27.65;;;;;;;0.23;100.00;103047.03;5060532;28;20491;-76
2022/03/23 03:35:56;;;;;;;41.75;26.05;;;;;;;0.18;100.00;103044.50;5063227;28;20051;-77
2022/03/23 03:38:22;;;;;;;41.08;27.00;;;;;;;0.13;100.00;103046.31;5066528;28;20879;-77
2022/03/23 03:40:47;;;;;;;43.08;27.60;;;;;;;0.09;100.00;103038.63;5044152;28;20039;-77
2022/03/23 03:43:13;;;;;;;38.60;25.92;;;;;;;0.06;100.00;103043.81;5040671;28;20037;-76
2022/03/23 03:45:38;;;;;;;42.03;26.27;;;;;;;0.11;100.00;103039.44;5046588;28;20103;-75
2022/03/23 03:48:04;;;;;;;42.17;25.13;;;;;;;0.13;100.00;103041.16;5056384;28;20020;-76
2022/03/23 03:50:30;;;;;;;40.55;25.50;;;;;;;0.15;100.00;103049.72;5035057;28;20129;-77
2022/03/23 03:52:56;;;;;;;41.00;25.65;;;;;;;0.13;100.00;103041.16;5040784;28;20048;-76
2022/03/23 03:55:21;;;;;;;44.72;25.38;;;;;;;0.12;100.00;103047.19;5068059;28;20040;-76
2022/03/23 03:57:47;;;;;;;40.25;25.17;;;;;;;0.17;100.00;103047.97;5045126;28;20668;-76
2022/03/23 04:00:15;;;;;;;39.13;24.90;;;;;;;0.12;100.00;103051.50;5064512;28;20068;-76
2022/03/23 04:02:40;;;;;;;39.60;25.23;;;;;;;0.13;100.00;103051.47;5066599;28;20039;-77
2022/03/23 04:05:07;;;;;;;41.28;24.60;;;;;;;0.09;100.00;103043.78;5037618;28;20041;-76
2022/03/23 04:07:33;;;;;;;38.25;24.73;;;;;;;0.03;100.00;103043.88;5067131;28;20029;-76
2022/03/23 04:10:00;;;;;;;39.20;24.48;;;;;;;0.02;100.00;103053.34;5028590;28;20047;-76
2022/03/23 04:12:26;;;;;;;42.00;25.08;;;;;;;-0.05;100.00;103044.84;5067552;28;20139;-77
2022/03/23 04:14:51;;;;;;;40.25;24.40;;;;;;;-0.07;100.00;103053.47;5021925;28;20541;-76
2022/03/23 04:17:17;;;;;;;42.40;25.23;;;;;;;-0.09;100.00;103047.50;5042308;28;20040;-75
2022/03/23 04:19:43;;;;;;;43.20;25.45;;;;;;;-0.07;100.00;103053.47;5041871;28;20028;-76
2022/03/23 04:22:08;;;;;;;42.70;25.15;;;;;;;-0.04;100.00;103053.41;5042055;28;20074;-77
2022/03/23 04:24:34;;;;;;;39.70;24.48;;;;;;;-0.06;100.00;103053.47;5050263;28;20496;-76
2022/03/23 04:27:00;;;;;;;41.67;25.88;;;;;;;-0.08;100.00;103044.03;5026399;28;20036;-77
2022/03/23 04:29:26;;;;;;;44.28;25.83;;;;;;;-0.10;100.00;103051.78;5049536;28;20162;-77
2022/03/23 04:31:52;;;;;;;40.67;25.80;;;;;;;-0.17;100.00;103049.31;5029947;28;20041;-76
2022/03/23 04:34:18;;;;;;;42.17;25.48;;;;;;;-0.25;100.00;103050.25;5051756;28;20060;-77
2022/03/23 04:36:44;;;;;;;46.38;26.05;;;;;;;-0.30;100.00;103053.75;5044554;28;20429;-76
2022/03/23 04:39:10;;;;;;;46.03;26.60;;;;;;;-0.32;100.00;103050.34;5064005;28;20127;-76
2022/03/23 04:41:35;;;;;;;41.67;24.33;;;;;;;-0.29;100.00;103056.31;5050161;28;20032;-77
2022/03/23 04:44:01;;;;;;;39.83;25.00;;;;;;;-0.27;100.00;103053.72;5035518;28;20443;-76
2022/03/23 04:46:27;;;;;;;40.33;24.58;;;;;;;-0.34;100.00;103049.53;5067875;28;20025;-77
2022/03/23 04:48:52;;;;;;;38.70;24.70;;;;;;;-0.35;100.00;103053.84;5071267;28;20032;-77
2022/03/23 04:51:18;;;;;;;45.33;25.38;;;;;;;-0.31;100.00;103060.66;5048827;28;20036;-77
2022/03/23 04:53:43;;;;;;;42.08;25.92;;;;;;;-0.32;100.00;103045.19;5039139;28;20047;-77
2022/03/23 04:56:11;;;;;;;44.20;26.17;;;;;;;-0.34;100.00;103057.25;5039490;28;20032;-77
2022/03/23 04:58:36;;;;;;;41.70;24.38;;;;;;;-0.36;100.00;103059.84;5055544;28;20062;-77
2022/03/23 05:01:03;;;;;;;41.63;25.10;;;;;;;-0.32;100.00;103056.38;5037648;28;20513;-77
2022/03/23 05:03:29;;;;;;;38.90;25.33;;;;;;;-0.34;100.00;103055.56;5072162;28;20052;-77
2022/03/23 05:05:55;;;;;;;42.08;26.05;;;;;;;-0.32;100.00;103066.69;5040255;28;20093;-77
2022/03/23 05:08:21;;;;;;;42.58;26.30;;;;;;;-0.30;100.00;103061.50;5056013;28;20164;-76
2022/03/23 05:10:47;;;;;;;46.78;26.73;;;;;;;-0.27;100.00;103049.41;5072477;28;20033;-78
2022/03/23 05:13:14;;;;;;;40.17;26.17;;;;;;;-0.14;100.00;103059.59;5044199;28;20041;-76
2022/03/23 05:15:40;;;;;;;43.85;26.23;;;;;;;-0.10;100.00;103053.50;5070952;28;20043;-76
2022/03/23 05:18:06;;;;;;;44.28;25.63;;;;;;;-0.10;100.00;103056.94;5058067;28;20414;-76
2022/03/23 05:20:31;;;;;;;41.22;25.50;;;;;;;-0.18;100.00;103051.03;5028730;28;20550;-77
2022/03/23 05:22:58;;;;;;;39.28;24.70;;;;;;;-0.17;100.00;103064.78;5048830;28;20534;-77
2022/03/23 05:25:23;;;;;;;38.38;24.63;;;;;;;-0.26;100.00;103065.78;5047064;28;20043;-76
2022/03/23 05:27:50;;;;;;;41.88;26.52;;;;;;;-0.34;100.00;103067.56;5056644;28;20055;-77
2022/03/23 05:30:15;;;;;;;38.30;24.92;;;;;;;-0.43;100.00;103063.41;5035530;28;20080;-77
2022/03/23 05:32:42;;;;;;;43.17;26.27;;;;;;;-0.41;100.00;103064.22;5055080;28;20425;-76
2022/03/23 05:35:09;;;;;;;42.35;25.10;;;;;;;-0.39;100.00;103067.66;5067283;28;20066;-77
2022/03/23 05:37:35;;;;;;;41.20;25.05;;;;;;;-0.39;100.00;103075.38;5030829;28;20124;-77
2022/03/23 05:40:04;;;;;;;39.05;25.05;;;;;;;-0.38;100.00;103064.19;5044153;28;20507;-77
2022/03/23 05:42:30;;;;;;;39.25;25.08;;;;;;;-0.30;100.00;103069.22;5055173;28;20064;-77
2022/03/23 05:44:56;;;;;;;42.97;25.88;;;;;;;-0.24;100.00;103064.03;5033244;28;20678;-77
2022/03/23 05:47:21;;;;;;;43.38;25.80;;;;;;;-0.14;100.00;103064.75;5067935;28;20565;-77
2022/03/23 05:49:47;;;;;;;41.20;24.88;;;;;;;-0.05;100.00;103065.47;5048786;28;20043;-77
2022/03/23 05:52:13;;;;;;;41.60;26.23;;;;;;;-0.03;100.00;103066.31;5051638;28;20512;-77
2022/03/23 05:54:39;;;;;;;40.97;24.92;;;;;;;0.00;100.00;103070.59;5046300;28;20048;-77
2022/03/23 05:57:05;;;;;;;39.63;24.33;;;;;;;-0.01;100.00;103072.28;5037076;28;20086;-76
2022/03/23 05:59:32;;;;;;;39.83;25.00;;;;;;;-0.01;100.00;103074.03;5066523;28;20032;-76
2022/03/23 06:01:58;;;;;;;44.28;26.50;;;;;;;0.02;100.00;103078.28;5068266;28;20063;-77
2022/03/23 06:04:24;;;;;;;41.10;26.20;;;;;;;0.05;100.00;103079.09;5053876;28;20069;-77
2022/03/23 06:06:50;;;;;;;48.35;26.73;;;;;;;0.05;100.00;103080.84;5063640;28;20165;-76
2022/03/23 06:09:15;;;;;;;35.72;24.17;;;;;;;0.18;100.00;103087.53;5035168;28;20503;-77
2022/03/23 06:11:41;;;;;;;40.90;25.17;;;;;;;0.28;100.00;103077.91;5033703;28;20033;-76
2022/03/23 06:14:07;;;;;;;43.28;24.27;;;;;;;0.41;100.00;103081.19;5067987;28;20040;-77
2022/03/23 06:16:33;;;;;;;37.45;24.55;;;;;;;0.52;100.00;103087.88;5038406;28;20117;-77
2022/03/23 06:19:01;;;;;;;37.22;23.95;;;;;;;0.66;100.00;103079.03;5033101;28;20028;-77
2022/03/23 06:21:28;;;;;;;39.75;24.58;;;;;;;0.82;100.00;103090.84;5069225;28;20044;-77
2022/03/23 06:23:54;;;;;;;46.90;26.23;;;;;;;0.97;100.00;103087.16;5054579;28;20410;-76
2022/03/23 06:26:19;;;;;;;39.47;25.45;;;;;;;1.12;100.00;103089.44;5056907;28;20036;-77
2022/03/23 06:28:45;;;;;;;42.75;26.05;;;;;;;1.29;100.00;103093.47;5028945;28;20033;-77
2022/03/23 06:31:11;;;;;;;43.72;26.17;;;;;;;1.46;100.00;103098.31;5033725;28;20032;-76
2022/03/23 06:33:36;;;;;;;40.88;26.42;;;;;;;1.75;100.00;103103.78;5064958;28;20554;-78
2022/03/23 06:36:03;;;;;;;39.35;24.95;;;;;;;1.94;100.00;103088.72;5049532;28;20044;-76
2022/03/23 06:38:29;;;;;;;46.85;25.80;;;;;;;2.18;100.00;103099.41;5061351;28;20166;-77
2022/03/23 06:40:56;;;;;;;39.97;23.70;;;;;;;2.36;100.00;103098.13;5068444;28;20041;-77
2022/03/23 06:43:22;;;;;;;43.47;24.67;;;;;;;2.58;100.00;103106.28;5034858;28;20036;-77
2022/03/23 06:45:47;;;;;;;42.08;25.70;;;;;;;2.78;100.00;103103.16;5043092;28;20170;-77
2022/03/23 06:48:13;;;;;;;44.63;25.58;;;;;;;2.95;100.00;103107.94;5045917;28;20037;-77
2022/03/23 06:50:40;;;;;;;40.38;24.98;;;;;;;3.13;100.00;103114.41;5033566;28;20624;-77
2022/03/23 06:53:05;;;;;;;43.60;25.30;;;;;;;3.26;100.00;103120.13;5050032;28;20183;-77
2022/03/23 06:55:31;;;;;;;41.65;25.92;;;;;;;3.38;100.00;103118.94;5068886;28;20779;-77
2022/03/23 06:57:57;;;;;;;42.53;25.73;;;;;;;3.49;99.77;103112.56;5071067;28;20109;-77
2022/03/23 07:00:23;;;;;;;40.88;24.40;;;;;;;3.61;98.69;103107.91;5050922;28;20028;-78
2022/03/23 07:02:50;;;;;;;40.08;25.30;;;;;;;3.79;97.47;103119.53;5053504;28;20067;-77
2022/03/23 07:05:18;;;;;;;36.85;23.52;;;;;;;3.92;97.05;103120.88;5054164;28;20531;-76
2022/03/23 07:10:30;;;;;;;38.53;23.33;;;;;;;4.24;95.73;103124.25;5070939;28;20149;-77
2022/03/23 07:12:56;;;;;;;35.10;22.95;;;;;;;4.38;94.09;103121.22;5054994;28;20036;-79
2022/03/23 07:15:23;;;;;;;36.90;22.55;;;;;;;4.49;93.89;103126.94;5047608;28;20472;-79
2022/03/23 07:17:49;;;;;;;38.38;21.92;;;;;;;4.64;92.91;103120.41;5052879;28;20032;-77
2022/03/23 07:20:14;;;;;;;34.58;21.50;;;;;;;4.79;93.35;103125.09;5027220;28;20536;-79
2022/03/23 07:22:40;;;;;;;38.45;23.80;;;;;;;4.95;91.80;103128.03;5054189;28;20036;-78
2022/03/23 07:25:06;;;;;;;39.85;23.40;;;;;;;5.13;89.87;103120.50;5047146;28;20085;-78
2022/03/23 07:27:32;;;;;;;35.25;21.80;;;;;;;5.31;88.45;103124.22;5035655;28;20037;-76
2022/03/23 07:29:57;;;;;;;43.03;22.88;;;;;;;5.48;87.41;103134.88;5065002;28;20070;-77
2022/03/23 07:32:23;;;;;;;36.50;22.75;;;;;;;5.63;87.36;103136.06;5060473;28;20068;-79
2022/03/23 07:34:49;;;;;;;40.08;23.33;;;;;;;5.77;87.59;103139.03;5046349;28;20033;-78
2022/03/23 07:37:15;;;;;;;37.40;22.98;;;;;;;5.89;86.11;103142.09;5069057;28;20048;-76
2022/03/23 07:39:40;;;;;;;38.05;22.95;;;;;;;6.00;86.49;103138.22;5047075;28;20136;-77
2022/03/23 07:42:06;;;;;;;41.55;23.98;;;;;;;6.23;85.15;103139.09;5049551;28;20060;-76
2022/03/23 07:44:33;;;;;;;39.97;23.17;;;;;;;6.44;85.04;103142.59;5051222;28;20028;-77
2022/03/23 07:47:00;;;;;;;34.20;22.50;;;;;;;6.55;84.17;103140.41;5066233;28;20044;-77
2022/03/23 07:49:25;;;;;;;42.95;23.30;;;;;;;6.75;82.57;103147.44;5050533;28;20028;-77
2022/03/23 07:51:51;;;;;;;42.53;24.00;;;;;;;6.87;81.09;103147.84;5028481;28;20150;-76
2022/03/23 07:54:17;;;;;;;38.88;23.77;;;;;;;6.98;82.68;103148.25;5028745;28;20047;-77
2022/03/23 07:56:44;;;;;;;40.88;24.00;;;;;;;7.16;81.87;103149.25;5036527;28;20044;-76
2022/03/23 07:59:09;;;;;;;39.30;22.42;;;;;;;7.29;81.19;103149.56;5051134;28;20037;-77
2022/03/23 08:01:35;;;;;;;35.40;22.65;;;;;;;7.44;78.91;103151.53;5035902;28;20039;-77
2022/03/23 08:04:01;;;;;;;40.95;23.58;;;;;;;7.67;75.90;103153.13;5045274;28;20128;-76
2022/03/23 08:06:28;;;;;;;41.47;23.80;;;;;;;7.84;74.67;103147.13;5028526;28;20486;-77
2022/03/23 08:08:55;;;;;;;41.45;23.85;;;;;;;8.04;73.02;103151.41;5052956;28;20032;-78
2022/03/23 08:11:21;;;;;;;41.20;22.70;;;;;;;8.14;72.02;103144.03;5054174;28;20048;-78
2022/03/23 08:13:47;;;;;;;35.97;23.02;;;;;;;8.21;70.21;103155.88;5033751;28;20132;-76
2022/03/23 08:16:13;;;;;;;40.40;22.15;;;;;;;8.35;69.49;103163.91;5041498;28;20485;-78
2022/03/23 08:18:38;;;;;;;44.30;23.10;;;;;;;8.53;71.59;103159.63;5074967;28;20047;-73
2022/03/23 08:21:05;;;;;;;37.63;22.52;;;;;;;8.55;71.22;103155.16;5058970;28;20421;-74
2022/03/23 08:23:32;;;;;;;37.33;23.02;;;;;;;8.63;69.12;103151.34;5049104;28;20025;-77
2022/03/23 08:25:58;;;;;;;39.42;23.08;;;;;;;8.63;69.15;103157.41;5041058;28;20482;-76
2022/03/23 08:28:24;;;;;;;40.20;21.48;;;;;;;8.78;62.82;103153.19;5042292;28;20075;-79
2022/03/23 08:30:50;;;;;;;40.75;21.95;;;;;;;8.85;64.91;103159.78;5054155;28;20127;-77
2022/03/23 08:33:15;;;;;;;35.70;22.75;;;;;;;9.01;65.72;103159.06;5032104;28;20132;-79
2022/03/23 08:35:41;;;;;;;37.33;21.20;;;;;;;9.19;61.58;103157.25;5056463;28;20038;-76
2022/03/23 08:38:07;;;;;;;40.97;21.30;;;;;;;9.35;58.21;103164.25;5031551;28;20174;-80
2022/03/23 08:40:35;;;;;;;36.17;19.70;;;;;;;9.59;55.40;103163.03;5040373;28;20032;-76
2022/03/23 08:43:02;;;;;;;41.65;18.42;;;;;;;9.67;53.29;103164.34;5049438;28;20573;-78
2022/03/23 08:45:28;;;;;;;27.67;18.10;;;;;;;9.81;53.12;103168.84;5049446;28;20037;-78
2022/03/23 08:47:54;;;;;;;28.65;17.98;;;;;;;9.85;51.50;103170.38;5054262;28;20032;-78
2022/03/23 08:50:20;;;;;;;24.27;16.70;;;;;;;9.89;51.32;103176.31;5031296;28;20052;-79
2022/03/23 08:52:46;;;;;;;26.63;17.20;;;;;;;10.01;49.96;103178.25;5035254;28;20556;-79
2022/03/23 08:55:19;;;;;;;30.65;16.27;;;;;;;10.13;48.46;103174.97;5062027;28;20106;-78
2022/03/23 08:57:46;;;;;;;24.63;16.33;;;;;;;10.26;47.80;103182.16;5044433;28;20070;-75
2022/03/23 09:00:12;;;;;;;27.02;16.95;;;;;;;10.39;46.67;103182.38;5048894;28;20146;-78
2022/03/23 09:02:38;;;;;;;24.63;16.23;;;;;;;10.39;44.97;103179.75;5032808;28;20363;-77
2022/03/23 09:05:09;;;;;;;27.10;17.40;;;;;;;10.62;45.77;103170.56;5037771;28;20047;-78
2022/03/23 09:07:36;;;;;;;31.00;17.52;;;;;;;10.60;46.61;103177.69;5046837;28;20039;-75
2022/03/23 09:10:02;;;;;;;26.52;17.25;;;;;;;10.61;48.36;103174.97;5054959;28;20028;-78
2022/03/23 09:12:28;;;;;;;26.67;16.85;;;;;;;10.76;48.26;103175.88;5056238;28;20046;-77
2022/03/23 09:14:53;;;;;;;23.90;16.50;;;;;;;10.88;48.71;103174.31;5032704;28;20040;-77
2022/03/23 09:17:19;;;;;;;28.95;17.60;;;;;;;11.11;46.72;103183.47;5053458;28;20032;-77
2022/03/23 09:19:44;;;;;;;23.33;16.92;;;;;;;11.19;46.95;103173.38;5069207;28;20385;-78
2022/03/23 09:22:10;;;;;;;28.77;18.88;;;;;;;11.37;47.12;103181.91;5039255;28;20032;-78
2022/03/23 09:24:36;;;;;;;26.38;17.75;;;;;;;11.55;47.75;103176.50;5056253;28;20039;-77
2022/03/23 09:27:01;;;;;;;28.00;18.02;;;;;;;11.72;46.16;103178.94;5031977;28;20040;-78
2022/03/23 09:29:27;;;;;;;28.42;17.50;;;;;;;11.82;45.18;103185.31;5043753;28;20495;-79
2022/03/23 09:31:53;;;;;;;24.25;17.58;;;;;;;11.99;45.73;103176.41;5038966;28;20043;-77
2022/03/23 09:34:18;;;;;;;26.88;17.50;;;;;;;12.12;43.92;103176.47;5069851;28;20032;-77
2022/03/23 09:39:28;;;;;;;23.83;17.25;;;;;;;12.12;43.58;103173.03;5069853;28;20107;-79
2022/03/23 09:41:57;;;;;;;25.23;16.33;;;;;;;12.27;43.46;103167.59;5054960;28;20127;-78
2022/03/23 09:44:28;;;;;;;30.55;17.55;;;;;;;12.46;42.70;103176.97;5047845;28;20037;-78
2022/03/23 09:46:55;;;;;;;24.27;16.95;;;;;;;12.44;42.20;103179.69;5059644;28;20049;-79
2022/03/23 09:49:23;;;;;;;26.20;17.15;;;;;;;12.64;41.76;103174.94;5033209;28;20037;-79
2022/03/23 09:51:52;;;;;;;27.75;17.35;;;;;;;12.77;42.03;103173.16;5068536;28;20157;-78
2022/03/23 09:54:18;;;;;;;23.83;16.23;;;;;;;12.74;42.32;103167.25;5062533;28;20052;-78
2022/03/23 09:56:43;;;;;;;25.83;17.15;;;;;;;12.92;41.49;103175.72;5042006;28;20045;-75
2022/03/23 09:59:09;;;;;;;28.05;17.88;;;;;;;12.96;43.29;103172.78;5063940;28;20033;-77
2022/03/23 10:02:00;;;;;;;28.05;17.00;;;;;;;13.13;43.15;103173.41;5028645;28;20094;-76
2022/03/23 10:05:04;;;;;;;27.23;17.17;;;;;;;13.24;39.69;103171.75;5052535;28;20036;-78
2022/03/23 10:07:52;;;;;;;28.73;16.50;;;;;;;13.42;39.47;103172.31;5052520;28;20082;-78
2022/03/23 10:10:53;;;;;;;25.23;16.77;;;;;;;13.54;39.70;103175.03;5043946;28;20048;-78
2022/03/23 10:13:57;;;;;;;24.52;16.80;;;;;;;13.69;40.96;103170.50;5033457;28;20115;-77
2022/03/23 10:17:00;;;;;;;25.20;16.30;;;;;;;13.81;39.61;103172.28;5054311;28;20346;-76
2022/03/23 10:19:26;;;;;;;;;;;;;;;13.97;38.13;103175.50;5057234;28;20037;-77
2022/03/23 10:21:52;;;;;;;23.58;15.77;;;;;;;14.07;39.04;103165.16;5070240;28;19922;-76
2022/03/23 10:24:18;;;;;;;22.65;15.32;;;;;;;14.21;37.46;103166.78;5032541;28;20129;-78
2022/03/23 10:26:44;;;;;;;26.40;16.15;;;;;;;14.24;39.34;103158.66;5029935;28;20108;-75
2022/03/23 10:29:24;;;;;;;21.48;15.10;;;;;;;14.46;36.67;103154.44;5043140;28;20079;-77
2022/03/23 10:32:06;;;;;;;25.42;15.75;;;;;;;14.57;39.64;103157.16;5069756;28;20064;-78
2022/03/23 10:34:39;;;;;;;25.65;16.25;;;;;;;14.71;36.31;103159.63;5053551;28;20747;-78
2022/03/23 10:37:05;;;;;;;23.65;15.20;;;;;;;14.79;35.29;103159.03;5030296;28;20040;-74
2022/03/23 10:39:32;;;;;;;19.45;14.45;;;;;;;14.79;36.34;103159.03;5028704;28;20123;-78
2022/03/23 10:42:14;;;;;;;25.85;15.50;;;;;;;14.89;35.47;103162.66;5034519;28;20041;-79
2022/03/23 10:44:41;;;;;;;29.52;16.02;;;;;;;14.96;35.16;103150.66;5045414;28;20040;-78
2022/03/23 10:47:08;;;;;;;24.58;14.73;;;;;;;15.09;35.64;103152.38;5034136;28;20044;-77
2022/03/23 10:49:36;;;;;;;24.10;14.15;;;;;;;15.28;34.33;103149.16;5047549;28;20025;-78
2022/03/23 10:52:17;;;;;;;24.83;15.15;;;;;;;15.32;33.89;103148.78;5025413;28;20120;-77
2022/03/23 10:54:58;;;;;;;23.33;14.70;;;;;;;15.46;34.49;103141.59;5064712;28;20035;-77
2022/03/23 10:58:06;;;;;;;24.10;14.35;;;;;;;15.51;34.01;103142.06;5050636;28;20040;-78
2022/03/23 11:00:38;;;;;;;29.45;14.98;;;;;;;15.50;34.27;103143.88;5053260;28;20040;-75
2022/03/23 11:03:06;;;;;;;27.50;15.23;;;;;;;15.62;35.17;103138.59;5031909;28;20037;-77
2022/03/23 11:05:39;;;;;;;21.00;15.10;;;;;;;15.69;35.03;103145.06;5033172;28;20078;-76
2022/03/23 11:08:20;;;;;;;26.48;14.73;;;;;;;15.76;34.27;103133.91;5044971;28;20549;-78
2022/03/23 11:16:27;;;;;;;24.80;14.48;;;;;;;16.22;35.27;103132.00;5051497;28;20048;-78
2022/03/23 11:19:14;;;;;;;26.05;15.60;;;;;;;16.41;34.56;103130.50;5047938;28;20039;-79
2022/03/23 11:22:01;;;;;;;22.55;15.02;;;;;;;16.34;32.27;103125.69;5031337;28;20094;-79
2022/03/23 11:24:29;;;;;;;20.92;13.82;;;;;;;16.26;33.03;103127.28;5069395;28;20041;-75
2022/03/23 11:26:55;;;;;;;30.65;14.73;;;;;;;16.27;34.17;103129.78;5030548;28;20047;-76
2022/03/23 11:29:22;;;;;;;32.03;14.57;;;;;;;16.38;34.72;103120.97;5032425;28;20027;-77
2022/03/23 11:31:49;;;;;;;25.20;14.75;;;;;;;16.53;34.05;103124.16;5046784;28;20048;-78
2022/03/23 11:34:19;;;;;;;24.05;14.43;;;;;;;16.52;34.17;103122.50;5045823;28;20040;-77
2022/03/23 11:36:47;;;;;;;25.42;14.73;;;;;;;16.65;35.38;103123.16;5053705;28;20032;-77